createdAt,value
2018-03-20T00:00:53.164Z,18.67
2018-03-20T00:03:22.395Z,15.97
2018-03-20T00:05:51.647Z,14.80
2018-03-20T00:08:21.459Z,13.43
2018-03-20T00:10:50.665Z,15.67
2018-03-20T00:13:19.861Z,12.87
2018-03-20T00:15:49.063Z,15.83
2018-03-20T00:18:18.380Z,12.80
2018-03-20T00:20:47.641Z,13.37
2018-03-20T00:23:16.856Z,14.43
2018-03-20T00:25:46.119Z,15.43
2018-03-20T00:28:15.225Z,18.10
2018-03-20T00:30:44.555Z,16.67
2018-03-20T00:33:13.863Z,13.17
2018-03-20T00:35:43.053Z,14.20
2018-03-20T00:38:12.215Z,14.77
2018-03-20T00:40:41.574Z,15.00
2018-03-20T00:43:10.867Z,14.93
2018-03-20T00:45:40.261Z,13.83
2018-03-20T00:48:09.416Z,15.90
2018-03-20T00:50:38.564Z,13.57
2018-03-20T00:53:07.721Z,15.67
2018-03-20T00:55:37.119Z,14.97
2018-03-20T00:58:06.347Z,15.27
2018-03-20T01:00:35.520Z,15.83
2018-03-20T01:03:04.850Z,17.67
2018-03-20T01:05:34.054Z,18.20
2018-03-20T01:08:03.568Z,16.57
2018-03-20T01:10:33.534Z,19.87
2018-03-20T01:13:03.571Z,22.80
2018-03-20T01:15:32.787Z,20.17
2018-03-20T01:18:01.887Z,16.40
2018-03-20T01:20:31.092Z,16.90
2018-03-20T01:23:00.452Z,18.80
2018-03-20T01:25:29.700Z,18.20
2018-03-20T01:27:58.875Z,15.73
2018-03-20T01:30:28.190Z,10.80
2018-03-20T01:32:57.471Z,13.20
2018-03-20T01:35:26.633Z,14.30
2018-03-20T01:37:55.869Z,10.60
2018-03-20T01:40:25.175Z,15.47
2018-03-20T01:42:54.595Z,13.37
2018-03-20T01:45:23.973Z,15.13
2018-03-20T01:47:53.193Z,14.70
2018-03-20T01:50:22.372Z,9.60
2018-03-20T01:52:57.592Z,12.33
2018-03-20T01:55:26.761Z,15.43
2018-03-20T01:57:56.014Z,10.93
2018-03-20T02:00:25.320Z,11.30
2018-03-20T02:02:54.712Z,8.57
2018-03-20T02:05:23.911Z,11.83
2018-03-20T02:07:53.216Z,13.47
2018-03-20T02:10:22.534Z,9.40
2018-03-20T02:12:51.704Z,11.77
2018-03-20T02:15:20.903Z,13.50
2018-03-20T02:17:50.102Z,9.33
2018-03-20T02:20:19.399Z,12.63
2018-03-20T02:22:48.620Z,7.20
2018-03-20T02:25:18.730Z,7.17
2018-03-20T02:27:47.919Z,7.23
2018-03-20T02:30:17.083Z,5.20
2018-03-20T02:32:46.320Z,4.40
2018-03-20T02:35:15.522Z,7.17
2018-03-20T02:37:44.727Z,3.67
2018-03-20T02:40:14.138Z,5.57
2018-03-20T02:42:43.256Z,3.17
2018-03-20T02:45:12.524Z,4.60
2018-03-20T02:47:41.803Z,4.10
2018-03-20T02:50:11.082Z,2.97
2018-03-20T02:52:40.398Z,3.23
2018-03-20T02:55:09.614Z,2.50
2018-03-20T02:57:38.820Z,3.70
2018-03-20T03:00:08.014Z,2.70
2018-03-20T03:02:37.182Z,3.07
2018-03-20T03:05:06.795Z,2.17
2018-03-20T03:07:36.019Z,2.70
2018-03-20T03:10:05.192Z,2.30
2018-03-20T03:12:34.524Z,1.80
2018-03-20T03:15:03.661Z,3.97
2018-03-20T03:17:32.774Z,5.40
2018-03-20T03:20:01.851Z,4.57
2018-03-20T03:22:30.959Z,6.73
2018-03-20T03:25:00.219Z,4.60
2018-03-20T03:27:29.306Z,4.60
2018-03-20T03:29:58.447Z,5.23
2018-03-20T03:32:27.662Z,3.80
2018-03-20T03:34:56.722Z,5.83
2018-03-20T03:37:25.824Z,3.40
2018-03-20T03:39:54.975Z,4.50
2018-03-20T03:42:24.100Z,4.57
2018-03-20T03:44:53.274Z,5.77
2018-03-20T03:47:22.415Z,5.47
2018-03-20T03:49:51.626Z,4.57
2018-03-20T03:52:20.960Z,3.77
2018-03-20T03:54:50.024Z,2.77
2018-03-20T03:57:19.097Z,3.97
2018-03-20T03:59:48.192Z,2.50
2018-03-20T04:02:17.343Z,3.03
2018-03-20T04:04:46.552Z,2.87
2018-03-20T04:07:15.708Z,3.00
2018-03-20T04:09:44.935Z,4.83
2018-03-20T04:12:14.051Z,5.87
2018-03-20T04:14:43.164Z,3.50
2018-03-20T04:17:12.243Z,4.93
2018-03-20T04:19:41.435Z,4.80
2018-03-20T04:22:10.552Z,4.13
2018-03-20T04:24:39.732Z,5.83
2018-03-20T04:27:08.934Z,5.70
2018-03-20T04:29:38.115Z,5.87
2018-03-20T04:32:07.249Z,5.90
2018-03-20T04:34:36.375Z,4.43
2018-03-20T04:37:05.443Z,5.90
2018-03-20T04:39:34.525Z,5.53
2018-03-20T04:42:03.669Z,6.67
2018-03-20T04:44:32.831Z,5.93
2018-03-20T04:47:01.978Z,4.53
2018-03-20T04:49:31.117Z,7.33
2018-03-20T04:52:00.208Z,7.63
2018-03-20T04:54:29.331Z,7.37
2018-03-20T04:56:58.414Z,7.47
2018-03-20T04:59:27.561Z,8.17
2018-03-20T05:01:56.697Z,10.17
2018-03-20T05:04:25.845Z,8.33
2018-03-20T05:06:55.017Z,9.10
2018-03-20T05:09:24.211Z,7.30
2018-03-20T05:11:53.381Z,6.87
2018-03-20T05:14:22.493Z,6.07
2018-03-20T05:16:51.619Z,6.13
2018-03-20T05:19:36.443Z,5.67
2018-03-20T05:22:15.611Z,7.17
2018-03-20T05:24:44.820Z,6.07
2018-03-20T05:27:14.045Z,6.90
2018-03-20T05:29:43.153Z,7.93
2018-03-20T05:32:12.344Z,6.57
2018-03-20T05:34:41.448Z,7.10
2018-03-20T05:37:10.567Z,6.50
2018-03-20T05:39:39.839Z,6.67
2018-03-20T05:42:08.979Z,6.70
2018-03-20T05:44:38.218Z,6.80
2018-03-20T05:47:26.042Z,8.83
2018-03-20T05:50:11.848Z,8.53
2018-03-20T05:52:41.013Z,9.33
2018-03-20T05:55:10.150Z,11.03
2018-03-20T05:57:39.219Z,8.60
2018-03-20T06:00:14.487Z,8.93
2018-03-20T06:02:49.872Z,8.97
2018-03-20T06:05:19.032Z,9.17
2018-03-20T06:07:48.145Z,8.70
2018-03-20T06:10:17.311Z,9.83
2018-03-20T06:12:46.463Z,7.93
2018-03-20T06:15:15.563Z,6.27
2018-03-20T06:17:44.624Z,7.90
2018-03-20T06:20:14.018Z,6.60
2018-03-20T06:22:43.325Z,9.10
2018-03-20T06:25:12.812Z,4.70
2018-03-20T06:27:42.000Z,8.20
2018-03-20T06:30:11.521Z,7.80
2018-03-20T06:32:40.672Z,6.07
2018-03-20T06:35:09.731Z,5.60
2018-03-20T06:37:38.819Z,7.47
2018-03-20T06:40:07.992Z,9.10
2018-03-20T06:42:37.126Z,10.37
2018-03-20T06:45:06.283Z,11.00
2018-03-20T06:47:35.436Z,11.47
2018-03-20T06:50:04.530Z,8.73
2018-03-20T06:52:33.775Z,9.70
2018-03-20T06:55:02.926Z,10.37
2018-03-20T06:57:32.537Z,10.90
2018-03-20T07:00:01.793Z,6.23
2018-03-20T07:02:31.061Z,5.90
2018-03-20T07:05:00.244Z,8.77
2018-03-20T07:07:29.581Z,7.50
2018-03-20T07:09:58.877Z,7.30
2018-03-20T07:12:28.282Z,8.27
2018-03-20T07:14:57.468Z,7.23
2018-03-20T07:17:26.673Z,8.77
2018-03-20T07:19:55.873Z,7.80
2018-03-20T07:22:25.070Z,7.43
2018-03-20T07:24:54.257Z,4.67
2018-03-20T07:27:23.493Z,4.77
2018-03-20T07:29:52.621Z,4.37
2018-03-20T07:32:21.870Z,4.27
2018-03-20T07:34:51.148Z,4.27
2018-03-20T07:37:20.273Z,4.70
2018-03-20T07:39:50.396Z,4.97
2018-03-20T07:42:19.697Z,5.07
2018-03-20T07:44:49.041Z,5.93
2018-03-20T07:47:18.386Z,3.20
2018-03-20T07:49:47.686Z,4.33
2018-03-20T07:52:16.888Z,3.73
2018-03-20T07:54:46.178Z,3.70
2018-03-20T07:57:15.382Z,4.27
2018-03-20T07:59:44.683Z,4.13
2018-03-20T08:02:14.090Z,3.33
2018-03-20T08:04:43.384Z,3.77
2018-03-20T08:07:12.665Z,3.80
2018-03-20T08:09:41.980Z,5.00
2018-03-20T08:12:11.151Z,4.00
2018-03-20T08:14:40.348Z,3.20
2018-03-20T08:17:09.559Z,3.33
2018-03-20T08:19:38.794Z,3.60
2018-03-20T08:22:08.292Z,3.23
2018-03-20T08:24:37.501Z,4.07
2018-03-20T08:27:06.627Z,3.23
2018-03-20T08:29:35.883Z,2.97
2018-03-20T08:32:05.821Z,3.57
2018-03-20T08:34:34.992Z,3.57
2018-03-20T08:37:04.188Z,5.67
2018-03-20T08:39:34.368Z,3.17
2018-03-20T08:42:03.630Z,3.40
2018-03-20T08:44:32.892Z,3.27
2018-03-20T08:47:02.211Z,2.87
2018-03-20T08:49:31.366Z,2.97
2018-03-20T08:52:00.597Z,2.70
2018-03-20T08:54:29.803Z,2.63
2018-03-20T08:56:58.997Z,3.53
2018-03-20T08:59:28.207Z,3.10
2018-03-20T09:01:57.365Z,2.60
2018-03-20T09:04:26.701Z,2.63
2018-03-20T09:06:56.003Z,2.60
2018-03-20T09:09:25.418Z,2.27
2018-03-20T09:11:54.804Z,2.07
2018-03-20T09:14:24.001Z,3.40
2018-03-20T09:16:53.216Z,1.80
2018-03-20T09:19:22.406Z,2.30
2018-03-20T09:21:52.739Z,2.50
2018-03-20T09:24:21.997Z,2.40
2018-03-20T09:26:51.222Z,2.27
2018-03-20T09:29:20.415Z,2.10
2018-03-20T09:31:49.936Z,2.90
2018-03-20T09:34:19.013Z,2.93
2018-03-20T09:36:48.213Z,3.40
2018-03-20T09:39:17.639Z,2.27
2018-03-20T09:41:46.812Z,3.07
2018-03-20T09:44:16.114Z,2.93
2018-03-20T09:46:45.516Z,3.30
2018-03-20T09:49:14.930Z,3.13
2018-03-20T09:51:44.224Z,2.53
2018-03-20T09:54:13.434Z,3.10
2018-03-20T09:56:42.605Z,2.40
2018-03-20T09:59:11.819Z,3.00
2018-03-20T10:01:41.216Z,3.57
2018-03-20T10:04:10.626Z,2.67
2018-03-20T10:06:39.841Z,2.40
2018-03-20T10:09:09.092Z,2.43
2018-03-20T10:11:38.432Z,2.07
2018-03-20T10:14:07.773Z,2.57
2018-03-20T10:16:37.025Z,2.93
2018-03-20T10:19:06.217Z,2.00
2018-03-20T10:21:35.379Z,2.83
2018-03-20T10:24:04.928Z,2.63
2018-03-20T10:26:34.240Z,2.77
2018-03-20T10:29:03.427Z,2.60
2018-03-20T10:31:32.834Z,1.83
2018-03-20T10:34:02.021Z,2.13
2018-03-20T10:36:31.334Z,2.00
2018-03-20T10:39:00.737Z,1.80
2018-03-20T10:41:29.978Z,2.60
2018-03-20T10:43:59.334Z,1.20
2018-03-20T10:46:28.630Z,2.33
2018-03-20T10:48:58.151Z,2.30
2018-03-20T10:51:27.556Z,1.60
2018-03-20T10:53:56.742Z,2.13
2018-03-20T10:56:26.031Z,2.73
2018-03-20T10:58:55.239Z,2.80
2018-03-20T11:01:30.393Z,2.73
2018-03-20T11:03:59.781Z,2.10
2018-03-20T11:06:29.807Z,2.23
2018-03-20T11:08:59.538Z,1.70
2018-03-20T11:11:30.834Z,2.43
2018-03-20T11:14:00.068Z,2.20
2018-03-20T11:16:29.254Z,1.50
2018-03-20T11:18:58.474Z,2.17
2018-03-20T11:21:27.958Z,2.10
2018-03-20T11:23:58.597Z,2.73
2018-03-20T11:26:28.009Z,1.90
2018-03-20T11:28:57.189Z,1.63
2018-03-20T11:31:26.376Z,2.40
2018-03-20T11:33:55.535Z,2.67
2018-03-20T11:36:24.672Z,2.23
2018-03-20T11:38:54.057Z,1.50
2018-03-20T11:41:23.277Z,1.70
2018-03-20T11:43:52.512Z,1.80
2018-03-20T11:46:21.778Z,1.90
2018-03-20T11:48:50.972Z,1.90
2018-03-20T11:51:20.183Z,1.97
2018-03-20T11:53:50.047Z,1.40
2018-03-20T11:56:19.287Z,1.60
2018-03-20T11:58:48.471Z,1.70
2018-03-20T12:01:17.744Z,1.47
2018-03-20T12:03:46.909Z,1.30
2018-03-20T12:06:16.185Z,1.87
2018-03-20T12:08:51.309Z,1.10
2018-03-20T12:11:20.496Z,1.00
2018-03-20T12:13:49.748Z,2.20
2018-03-20T12:16:18.912Z,1.73
2018-03-20T12:18:48.079Z,2.10
2018-03-20T12:21:17.288Z,1.93
2018-03-20T12:23:46.600Z,1.90
2018-03-20T12:26:16.016Z,1.47
2018-03-20T12:28:45.324Z,1.83
2018-03-20T12:31:15.526Z,2.10
2018-03-20T12:33:44.730Z,1.80
2018-03-20T12:36:13.936Z,1.70
2018-03-20T12:38:43.151Z,2.47
2018-03-20T12:41:12.432Z,1.53
2018-03-20T12:43:41.832Z,1.80
2018-03-20T12:46:11.062Z,2.20
2018-03-20T12:48:40.336Z,1.63
2018-03-20T12:51:09.595Z,2.00
2018-03-20T12:53:38.803Z,2.10
2018-03-20T12:56:08.024Z,1.80
2018-03-20T12:58:37.323Z,1.57
2018-03-20T13:01:06.621Z,2.23
2018-03-20T13:03:35.929Z,2.30
2018-03-20T13:06:05.227Z,1.97
2018-03-20T13:08:34.532Z,2.27
2018-03-20T13:11:03.840Z,2.20
2018-03-20T13:13:33.033Z,2.00
2018-03-20T13:16:02.225Z,2.00
2018-03-20T13:18:31.631Z,2.30
2018-03-20T13:21:00.936Z,2.47
2018-03-20T13:23:30.120Z,2.50
2018-03-20T13:25:59.427Z,2.50
2018-03-20T13:28:28.572Z,2.50
2018-03-20T13:30:57.828Z,2.70
2018-03-20T13:33:27.246Z,3.30
2018-03-20T13:35:56.421Z,2.60
2018-03-20T13:38:25.716Z,2.60
2018-03-20T13:40:55.032Z,2.70
2018-03-20T13:43:24.337Z,2.83
2018-03-20T13:45:53.481Z,3.00
2018-03-20T13:48:22.724Z,2.80
2018-03-20T13:50:52.699Z,2.80
2018-03-20T13:53:27.053Z,3.27
2018-03-20T13:55:56.232Z,2.90
2018-03-20T13:58:25.667Z,3.20
2018-03-20T14:00:55.575Z,2.60
2018-03-20T14:03:24.783Z,2.70
2018-03-20T14:05:54.171Z,3.00
2018-03-20T14:08:23.334Z,3.20
2018-03-20T14:10:53.392Z,2.97
2018-03-20T14:13:22.689Z,2.57
2018-03-20T14:15:51.866Z,2.37
2018-03-20T14:18:21.082Z,2.67
2018-03-20T14:20:50.292Z,2.80
2018-03-20T14:23:20.233Z,2.67
2018-03-20T14:25:49.474Z,2.63
2018-03-20T14:28:18.795Z,2.60
2018-03-20T14:30:48.002Z,3.43
2018-03-20T14:33:17.191Z,3.17
2018-03-20T14:35:46.503Z,2.80
2018-03-20T14:38:15.769Z,2.50
2018-03-20T14:40:44.971Z,3.10
2018-03-20T14:43:14.199Z,3.07
2018-03-20T14:45:43.346Z,2.80
2018-03-20T14:48:12.493Z,2.60
2018-03-20T14:50:41.770Z,2.70
2018-03-20T14:53:11.086Z,2.60
2018-03-20T14:55:40.474Z,3.00
2018-03-20T14:58:09.700Z,3.10
2018-03-20T15:00:38.892Z,3.07
2018-03-20T15:03:08.084Z,3.63
2018-03-20T15:05:37.399Z,3.77
2018-03-20T15:08:06.686Z,3.83
2018-03-20T15:10:35.894Z,3.37
2018-03-20T15:13:05.105Z,3.90
2018-03-20T15:15:34.276Z,4.80
2018-03-20T15:18:03.645Z,2.77
2018-03-20T15:20:32.883Z,2.40
2018-03-20T15:23:02.082Z,2.67
2018-03-20T15:25:31.278Z,2.67
2018-03-20T15:28:00.490Z,2.70
2018-03-20T15:30:29.642Z,2.97
2018-03-20T15:32:58.773Z,2.40
2018-03-20T15:35:27.928Z,2.60
2018-03-20T15:37:57.147Z,2.67
2018-03-20T15:40:26.320Z,2.53
2018-03-20T15:42:55.692Z,2.77
2018-03-20T15:45:25.108Z,2.70
2018-03-20T15:47:54.399Z,3.10
2018-03-20T15:50:24.371Z,2.90
2018-03-20T15:52:53.584Z,3.00
2018-03-20T15:55:22.783Z,3.00
2018-03-20T15:57:52.078Z,3.23
2018-03-20T16:00:21.228Z,3.10
2018-03-20T16:02:50.506Z,3.83
2018-03-20T16:05:19.778Z,4.63
2018-03-20T16:07:49.303Z,5.23
2018-03-20T16:10:18.733Z,5.70
2018-03-20T16:12:48.099Z,6.67
2018-03-20T16:15:17.291Z,7.00
2018-03-20T16:17:46.707Z,7.37
2018-03-20T16:20:15.942Z,6.90
2018-03-20T16:22:45.107Z,7.43
2018-03-20T16:25:14.404Z,7.60
2018-03-20T16:27:43.689Z,7.17
2018-03-20T16:30:13.210Z,7.73
2018-03-20T16:32:42.496Z,8.90
2018-03-20T16:35:11.693Z,8.90
2018-03-20T16:37:41.410Z,8.33
2018-03-20T16:40:10.711Z,8.70
2018-03-20T16:42:39.912Z,9.17
2018-03-20T16:45:09.108Z,8.33
2018-03-20T16:47:38.425Z,9.10
2018-03-20T16:50:07.609Z,9.70
2018-03-20T16:52:36.866Z,10.43
2018-03-20T16:55:06.096Z,10.10
2018-03-20T16:57:35.299Z,9.93
2018-03-20T17:00:04.605Z,10.30
2018-03-20T17:02:33.903Z,11.47
2018-03-20T17:05:03.179Z,11.37
2018-03-20T17:07:32.574Z,11.63
2018-03-20T17:10:08.873Z,10.77
2018-03-20T17:12:44.749Z,11.63
2018-03-20T17:15:13.919Z,12.60
2018-03-20T17:17:43.174Z,12.13
2018-03-20T17:20:12.418Z,13.30
2018-03-20T17:22:41.632Z,12.83
2018-03-20T17:25:10.829Z,13.23
2018-03-20T17:27:40.222Z,13.93
2018-03-20T17:30:09.378Z,15.30
2018-03-20T17:32:38.725Z,15.20
2018-03-20T17:35:07.917Z,16.43
2018-03-20T17:37:37.115Z,12.47
2018-03-20T17:40:06.316Z,11.63
2018-03-20T17:42:35.511Z,13.23
2018-03-20T17:45:04.702Z,12.03
2018-03-20T17:47:34.749Z,13.40
2018-03-20T17:50:04.028Z,13.43
2018-03-20T17:52:34.042Z,13.47
2018-03-20T17:55:03.241Z,12.17
2018-03-20T17:57:32.437Z,11.77
2018-03-20T18:00:01.638Z,12.63
2018-03-20T18:02:31.049Z,12.73
2018-03-20T18:05:00.360Z,13.63
2018-03-20T18:07:29.637Z,13.63
2018-03-20T18:09:58.805Z,12.17
2018-03-20T18:12:28.051Z,11.17
2018-03-20T18:14:57.235Z,9.80
2018-03-20T18:17:26.439Z,9.57
2018-03-20T18:19:55.613Z,9.37
2018-03-20T18:22:24.842Z,9.67
2018-03-20T18:24:54.222Z,10.13
2018-03-20T18:27:23.430Z,9.40
2018-03-20T18:29:52.634Z,10.83
2018-03-20T18:32:21.931Z,10.87
2018-03-20T18:34:51.129Z,11.10
2018-03-20T18:37:20.324Z,11.30
2018-03-20T18:39:50.015Z,12.60
2018-03-20T18:42:19.449Z,13.87
2018-03-20T18:44:48.697Z,13.57
2018-03-20T18:47:17.939Z,14.43
2018-03-20T18:49:47.247Z,14.83
2018-03-20T18:52:16.452Z,14.30
2018-03-20T18:54:45.613Z,14.83
2018-03-20T18:57:14.812Z,15.47
2018-03-20T18:59:44.041Z,14.93
2018-03-20T19:02:13.345Z,15.47
2018-03-20T19:04:42.539Z,17.87
2018-03-20T19:07:11.729Z,16.53
2018-03-20T19:09:41.048Z,16.23
2018-03-20T19:12:10.436Z,16.13
2018-03-20T19:14:39.743Z,17.17
2018-03-20T19:17:08.926Z,16.43
2018-03-20T19:19:38.227Z,15.80
2018-03-20T19:22:07.544Z,15.33
2018-03-20T19:24:36.710Z,17.23
2018-03-20T19:27:05.932Z,15.23
2018-03-20T19:29:35.240Z,15.30
2018-03-20T19:32:04.533Z,15.60
2018-03-20T19:34:33.723Z,16.73
2018-03-20T19:37:02.926Z,16.50
2018-03-20T19:39:32.941Z,16.00
2018-03-20T19:42:02.768Z,16.27
2018-03-20T19:44:32.059Z,16.30
2018-03-20T19:47:01.254Z,17.23
2018-03-20T19:49:30.448Z,17.33
2018-03-20T19:51:59.653Z,17.07
2018-03-20T19:54:28.811Z,16.87
2018-03-20T19:56:57.956Z,16.80
2018-03-20T19:59:27.135Z,17.20
2018-03-20T20:01:56.354Z,18.50
2018-03-20T20:04:25.813Z,19.17
2018-03-20T20:06:55.039Z,16.97
2018-03-20T20:09:24.455Z,17.57
2018-03-20T20:11:53.660Z,17.03
2018-03-20T20:14:22.910Z,17.50
2018-03-20T20:16:52.111Z,16.77
2018-03-20T20:19:21.310Z,19.00
2018-03-20T20:21:50.954Z,18.63
2018-03-20T20:24:20.122Z,18.93
2018-03-20T20:26:49.688Z,17.73
2018-03-20T20:29:18.942Z,18.57
2018-03-20T20:31:48.151Z,17.83
2018-03-20T20:34:17.308Z,17.03
2018-03-20T20:36:46.542Z,16.73
2018-03-20T20:39:15.851Z,16.33
2018-03-20T20:41:45.112Z,17.40
2018-03-20T20:44:14.257Z,17.87
2018-03-20T20:46:43.559Z,15.87
2018-03-20T20:49:12.844Z,16.57
2018-03-20T20:51:42.107Z,16.30
2018-03-20T20:54:11.346Z,16.03
2018-03-20T20:56:40.537Z,16.80
2018-03-20T20:59:10.644Z,16.40
2018-03-20T21:01:39.701Z,17.00
2018-03-20T21:04:08.929Z,19.93
2018-03-20T21:06:38.174Z,18.17
2018-03-20T21:09:09.132Z,21.80
2018-03-20T21:11:38.346Z,21.00
2018-03-20T21:14:07.594Z,19.60
2018-03-20T21:16:36.785Z,19.80
2018-03-20T21:19:06.073Z,18.37
2018-03-20T21:21:36.208Z,18.10
2018-03-20T21:24:05.624Z,16.23
2018-03-20T21:26:34.807Z,17.93
2018-03-20T21:29:04.928Z,18.30
2018-03-20T21:31:34.130Z,17.40
2018-03-20T21:34:03.325Z,18.23
2018-03-20T21:36:32.521Z,17.30
2018-03-20T21:39:02.801Z,17.07
2018-03-20T21:41:32.164Z,16.57
2018-03-20T21:44:01.355Z,16.43
2018-03-20T21:46:30.646Z,17.13
2018-03-20T21:48:59.845Z,17.30
2018-03-20T21:51:29.043Z,16.67
2018-03-20T21:53:58.240Z,17.03
2018-03-20T21:56:28.116Z,18.90
2018-03-20T21:58:57.337Z,18.83
2018-03-20T22:01:26.511Z,19.77
2018-03-20T22:03:55.602Z,20.63
2018-03-20T22:06:24.811Z,21.03
2018-03-20T22:08:54.021Z,22.70
2018-03-20T22:11:23.238Z,22.47
2018-03-20T22:13:52.441Z,21.83
2018-03-20T22:16:21.613Z,18.57
2018-03-20T22:18:50.836Z,20.00
2018-03-20T22:21:19.989Z,21.40
2018-03-20T22:23:49.204Z,21.03
2018-03-20T22:26:18.503Z,19.77
2018-03-20T22:28:47.724Z,19.40
2018-03-20T22:31:16.933Z,20.70
2018-03-20T22:33:46.135Z,19.53
2018-03-20T22:36:15.330Z,19.20
2018-03-20T22:38:44.729Z,19.50
2018-03-20T22:41:14.039Z,21.43
2018-03-20T22:43:43.337Z,21.17
2018-03-20T22:46:12.531Z,20.27
2018-03-20T22:48:41.731Z,21.50
2018-03-20T22:51:10.910Z,19.93
2018-03-20T22:53:40.801Z,21.57
2018-03-20T22:56:09.903Z,20.40
2018-03-20T22:58:39.107Z,19.57
2018-03-20T23:01:08.335Z,19.03
2018-03-20T23:03:37.530Z,19.10
2018-03-20T23:06:06.724Z,17.13
2018-03-20T23:08:36.069Z,17.03
2018-03-20T23:11:06.049Z,16.53
2018-03-20T23:13:35.251Z,17.70
2018-03-20T23:16:04.541Z,18.37
2018-03-20T23:18:33.753Z,18.43
2018-03-20T23:21:02.958Z,19.17
2018-03-20T23:23:32.236Z,19.57
2018-03-20T23:26:01.448Z,21.23
2018-03-20T23:28:30.826Z,20.57
2018-03-20T23:31:00.153Z,22.17
2018-03-20T23:33:29.305Z,20.27
2018-03-20T23:35:58.534Z,20.47
2018-03-20T23:38:27.699Z,22.50
2018-03-20T23:40:57.138Z,21.07
2018-03-20T23:43:26.265Z,18.87
2018-03-20T23:45:55.548Z,20.37
2018-03-20T23:48:24.854Z,21.60
2018-03-20T23:50:54.030Z,22.40
2018-03-20T23:53:23.333Z,23.30
2018-03-20T23:55:52.537Z,22.70
2018-03-20T23:58:21.702Z,20.83
